Halifax, Nova Scotia

12:52 AM ADT on September 03, 2015 (GMT -0300)
Halifax International | | Change Station
CLOSE
Current Station
Airport
Location: Halifax,
Elevation: 476 ft
Nearby Weather Stations

Elev 476 ft 44.88 °N, 63.51 °W | Updated 52 minutes ago

Mostly Cloudy
Mostly Cloudy
64 °F
Feels Like 64 °F
N
9
Wind Variable Wind from SW

Today is forecast to be nearly the same temperature as yesterday.

Today
High -- | Low -- °F
--% Chance of Precip.
Yesterday
High -- | Low -- °F
Precip. -- in
6:38 AM 7:47 PM
Waning Gibbous, 74% visible
Pressure 29.82 in
Visibility 15.0 miles
Clouds Few 16000 ft
Mostly Cloudy 25000 ft
Dew Point 63 °F
Humidity 94%
Rainfall 0.00 in
Snow Depth Not available.
UV 0 out of 12
Pollen Not available.
Air Quality Not available.
Flu Activity Not available.
METAR CYHZ 030300Z 23008KT 15SM FEW160 BKN250 18/17 A2982 RMK AC1CI5 SLP096 DENSITY ALT 1100FT
Pressure 29.82 in
Visibility 15.0 miles
Clouds Few 16000 ft
Mostly Cloudy 25000 ft
Dew Point 63 °F
Humidity 94%
Rainfall 0.00 in
Snow Depth Not available.
UV 0 out of 12
Pollen Not available.
Air Quality Not available.
Flu Activity Not available.
METAR CYHZ 030300Z 23008KT 15SM FEW160 BKN250 18/17 A2982 RMK AC1CI5 SLP096 DENSITY ALT 1100FT

10-Day Weather Forecast

×

Almanac

Astronomy

Sep. 03, 2015 Rise Set
Actual Time
Civil Twilight
Nautical Twilight
Astronomical Twilight
Moon
Length of Visible Light
Length of Day
Tomorrow will be .
, % of the Moon is Illuminated

Today's Extremes

Country Highs Country Lows

Community

WunderPhotos

Upload Photos

1,851,903 photos uploaded!

WunderBlogs® & News

Nearby

Air Quality

  Air Quality AQ Index Pollutant
Not available.

Snow Depth

Station Depth Elevation

Earthquake Activity

City Distance Mag. Time & Date
Minimum magnitude displayed is 2.5.

Coastal Water Temperatures

Place Temperature

Stations

Nearby Weather Stations

Station Location Temp. Windchill Dew Point Humidity Wind Precip. Elev Updated Type